sensor_id;sensor_type;location;lat;lon;timestamp;P1;durP1;ratioP1;P2;durP2;ratioP2
22005;SDS011;11167;46.988;15.470;2022-07-24T00:01:51;4.20;;;2.62;;
22005;SDS011;11167;46.988;15.470;2022-07-24T00:03:52;5.12;;;2.58;;
22005;SDS011;11167;46.988;15.470;2022-07-24T00:05:53;4.37;;;2.80;;
22005;SDS011;11167;46.988;15.470;2022-07-24T00:07:55;5.70;;;2.90;;
22005;SDS011;11167;46.988;15.470;2022-07-24T00:09:56;4.22;;;2.62;;
22005;SDS011;11167;46.988;15.470;2022-07-24T00:11:57;5.65;;;2.50;;
22005;SDS011;11167;46.988;15.470;2022-07-24T00:13:59;2.55;;;1.75;;
22005;SDS011;11167;46.988;15.470;2022-07-24T00:16:00;3.33;;;2.35;;
22005;SDS011;11167;46.988;15.470;2022-07-24T00:18:02;3.20;;;2.30;;
22005;SDS011;11167;46.988;15.470;2022-07-24T00:20:04;3.55;;;2.33;;
22005;SDS011;11167;46.988;15.470;2022-07-24T00:22:06;3.60;;;2.27;;
22005;SDS011;11167;46.988;15.470;2022-07-24T00:24:08;4.00;;;2.35;;
22005;SDS011;11167;46.988;15.470;2022-07-24T00:26:10;3.45;;;2.20;;
22005;SDS011;11167;46.988;15.470;2022-07-24T00:28:12;3.75;;;2.05;;
22005;SDS011;11167;46.988;15.470;2022-07-24T00:30:13;2.77;;;1.80;;
22005;SDS011;11167;46.988;15.470;2022-07-24T00:32:15;4.87;;;2.20;;
22005;SDS011;11167;46.988;15.470;2022-07-24T00:34:16;3.35;;;2.30;;
22005;SDS011;11167;46.988;15.470;2022-07-24T00:36:17;3.08;;;2.20;;
22005;SDS011;11167;46.988;15.470;2022-07-24T00:38:18;3.22;;;1.95;;
22005;SDS011;11167;46.988;15.470;2022-07-24T00:40:19;4.00;;;2.55;;
22005;SDS011;11167;46.988;15.470;2022-07-24T00:42:21;3.05;;;2.15;;
22005;SDS011;11167;46.988;15.470;2022-07-24T00:44:22;3.40;;;2.30;;
22005;SDS011;11167;46.988;15.470;2022-07-24T00:46:23;3.22;;;2.10;;
22005;SDS011;11167;46.988;15.470;2022-07-24T00:48:24;2.35;;;2.15;;
22005;SDS011;11167;46.988;15.470;2022-07-24T00:50:25;3.17;;;2.27;;
22005;SDS011;11167;46.988;15.470;2022-07-24T00:52:27;2.40;;;1.98;;
22005;SDS011;11167;46.988;15.470;2022-07-24T00:54:28;3.52;;;2.12;;
22005;SDS011;11167;46.988;15.470;2022-07-24T00:56:30;1.70;;;1.60;;
22005;SDS011;11167;46.988;15.470;2022-07-24T00:58:31;3.00;;;2.00;;
22005;SDS011;11167;46.988;15.470;2022-07-24T01:00:33;2.65;;;1.92;;
22005;SDS011;11167;46.988;15.470;2022-07-24T01:02:34;2.92;;;2.17;;
22005;SDS011;11167;46.988;15.470;2022-07-24T01:04:35;4.75;;;1.92;;
22005;SDS011;11167;46.988;15.470;2022-07-24T01:06:46;3.12;;;1.92;;
22005;SDS011;11167;46.988;15.470;2022-07-24T01:08:45;4.15;;;2.00;;
22005;SDS011;11167;46.988;15.470;2022-07-24T01:10:46;2.45;;;1.80;;
22005;SDS011;11167;46.988;15.470;2022-07-24T01:12:48;3.77;;;2.10;;
22005;SDS011;11167;46.988;15.470;2022-07-24T01:14:49;3.08;;;2.15;;
22005;SDS011;11167;46.988;15.470;2022-07-24T01:16:50;2.60;;;1.90;;
22005;SDS011;11167;46.988;15.470;2022-07-24T01:18:51;3.42;;;2.20;;
22005;SDS011;11167;46.988;15.470;2022-07-24T01:20:53;2.90;;;2.20;;
22005;SDS011;11167;46.988;15.470;2022-07-24T01:22:55;2.27;;;1.83;;
22005;SDS011;11167;46.988;15.470;2022-07-24T01:24:57;4.10;;;1.95;;
22005;SDS011;11167;46.988;15.470;2022-07-24T01:26:58;2.62;;;1.98;;
22005;SDS011;11167;46.988;15.470;2022-07-24T01:28:59;2.70;;;1.80;;
22005;SDS011;11167;46.988;15.470;2022-07-24T01:31:00;3.98;;;1.92;;
22005;SDS011;11167;46.988;15.470;2022-07-24T01:33:01;2.52;;;2.10;;
22005;SDS011;11167;46.988;15.470;2022-07-24T01:35:03;2.12;;;1.82;;
22005;SDS011;11167;46.988;15.470;2022-07-24T01:37:05;2.12;;;1.80;;
22005;SDS011;11167;46.988;15.470;2022-07-24T01:39:06;2.27;;;2.02;;
22005;SDS011;11167;46.988;15.470;2022-07-24T01:41:08;3.60;;;1.80;;
22005;SDS011;11167;46.988;15.470;2022-07-24T01:43:09;3.15;;;2.33;;
22005;SDS011;11167;46.988;15.470;2022-07-24T01:45:10;3.25;;;1.92;;
22005;SDS011;11167;46.988;15.470;2022-07-24T01:47:11;3.05;;;2.10;;
22005;SDS011;11167;46.988;15.470;2022-07-24T01:49:14;3.50;;;2.37;;
22005;SDS011;11167;46.988;15.470;2022-07-24T01:51:15;2.85;;;2.30;;
22005;SDS011;11167;46.988;15.470;2022-07-24T01:53:16;2.40;;;2.02;;
22005;SDS011;11167;46.988;15.470;2022-07-24T01:55:18;2.87;;;2.25;;
22005;SDS011;11167;46.988;15.470;2022-07-24T01:57:19;2.20;;;2.00;;
22005;SDS011;11167;46.988;15.470;2022-07-24T01:59:20;3.30;;;2.20;;
22005;SDS011;11167;46.988;15.470;2022-07-24T02:01:21;3.60;;;2.27;;
22005;SDS011;11167;46.988;15.470;2022-07-24T02:03:23;2.87;;;2.30;;
22005;SDS011;11167;46.988;15.470;2022-07-24T02:05:24;2.20;;;1.95;;
22005;SDS011;11167;46.988;15.470;2022-07-24T02:07:25;2.45;;;1.95;;
22005;SDS011;11167;46.988;15.470;2022-07-24T02:09:27;3.77;;;2.10;;
22005;SDS011;11167;46.988;15.470;2022-07-24T02:11:28;2.58;;;2.10;;
22005;SDS011;11167;46.988;15.470;2022-07-24T02:13:29;3.37;;;2.58;;
22005;SDS011;11167;46.988;15.470;2022-07-24T02:15:30;3.98;;;2.02;;
22005;SDS011;11167;46.988;15.470;2022-07-24T02:17:31;2.65;;;2.00;;
22005;SDS011;11167;46.988;15.470;2022-07-24T02:19:33;2.35;;;2.00;;
22005;SDS011;11167;46.988;15.470;2022-07-24T02:21:34;2.30;;;1.90;;
22005;SDS011;11167;46.988;15.470;2022-07-24T02:23:35;2.10;;;1.70;;
22005;SDS011;11167;46.988;15.470;2022-07-24T02:25:37;4.10;;;2.50;;
22005;SDS011;11167;46.988;15.470;2022-07-24T02:27:38;2.90;;;2.35;;
22005;SDS011;11167;46.988;15.470;2022-07-24T02:29:39;2.52;;;2.33;;
22005;SDS011;11167;46.988;15.470;2022-07-24T02:31:40;3.15;;;2.27;;
22005;SDS011;11167;46.988;15.470;2022-07-24T02:33:41;4.12;;;2.40;;
22005;SDS011;11167;46.988;15.470;2022-07-24T02:35:43;2.80;;;2.40;;
22005;SDS011;11167;46.988;15.470;2022-07-24T02:37:45;6.08;;;2.58;;
22005;SDS011;11167;46.988;15.470;2022-07-24T02:39:46;2.95;;;2.25;;
22005;SDS011;11167;46.988;15.470;2022-07-24T02:41:47;3.67;;;2.15;;
22005;SDS011;11167;46.988;15.470;2022-07-24T02:43:48;2.22;;;1.85;;
22005;SDS011;11167;46.988;15.470;2022-07-24T02:45:50;2.50;;;2.30;;
22005;SDS011;11167;46.988;15.470;2022-07-24T02:47:56;2.22;;;2.02;;
22005;SDS011;11167;46.988;15.470;2022-07-24T02:49:55;2.65;;;2.17;;
22005;SDS011;11167;46.988;15.470;2022-07-24T02:51:57;2.45;;;1.90;;
22005;SDS011;11167;46.988;15.470;2022-07-24T02:53:58;2.83;;;2.20;;
22005;SDS011;11167;46.988;15.470;2022-07-24T02:55:59;2.45;;;1.98;;
22005;SDS011;11167;46.988;15.470;2022-07-24T02:58:02;3.77;;;2.15;;
22005;SDS011;11167;46.988;15.470;2022-07-24T03:00:04;3.72;;;2.30;;
22005;SDS011;11167;46.988;15.470;2022-07-24T03:04:28;6.30;;;2.65;;
22005;SDS011;11167;46.988;15.470;2022-07-24T03:06:29;2.52;;;1.87;;
22005;SDS011;11167;46.988;15.470;2022-07-24T03:08:31;4.00;;;2.50;;
22005;SDS011;11167;46.988;15.470;2022-07-24T03:10:32;2.75;;;2.42;;
22005;SDS011;11167;46.988;15.470;2022-07-24T03:12:33;4.80;;;2.65;;
22005;SDS011;11167;46.988;15.470;2022-07-24T03:14:34;2.77;;;2.20;;
22005;SDS011;11167;46.988;15.470;2022-07-24T03:16:36;3.42;;;2.50;;
22005;SDS011;11167;46.988;15.470;2022-07-24T03:18:37;4.08;;;2.12;;
22005;SDS011;11167;46.988;15.470;2022-07-24T03:20:38;3.60;;;2.55;;
22005;SDS011;11167;46.988;15.470;2022-07-24T03:22:41;3.87;;;2.55;;
22005;SDS011;11167;46.988;15.470;2022-07-24T03:27:03;3.62;;;2.08;;
22005;SDS011;11167;46.988;15.470;2022-07-24T03:29:04;3.10;;;2.50;;
22005;SDS011;11167;46.988;15.470;2022-07-24T03:31:05;3.08;;;2.40;;
22005;SDS011;11167;46.988;15.470;2022-07-24T03:33:06;4.20;;;2.37;;
22005;SDS011;11167;46.988;15.470;2022-07-24T03:35:08;3.27;;;2.25;;
22005;SDS011;11167;46.988;15.470;2022-07-24T03:37:09;3.60;;;2.52;;
22005;SDS011;11167;46.988;15.470;2022-07-24T03:39:10;2.27;;;2.02;;
22005;SDS011;11167;46.988;15.470;2022-07-24T03:41:11;2.60;;;2.00;;
22005;SDS011;11167;46.988;15.470;2022-07-24T03:43:13;2.30;;;2.10;;
22005;SDS011;11167;46.988;15.470;2022-07-24T03:45:14;2.37;;;2.17;;
22005;SDS011;11167;46.988;15.470;2022-07-24T03:47:16;3.20;;;2.27;;
22005;SDS011;11167;46.988;15.470;2022-07-24T03:49:17;3.35;;;2.33;;
22005;SDS011;11167;46.988;15.470;2022-07-24T03:51:18;2.55;;;2.20;;
22005;SDS011;11167;46.988;15.470;2022-07-24T03:53:19;2.47;;;2.15;;
22005;SDS011;11167;46.988;15.470;2022-07-24T03:55:20;2.70;;;2.20;;
22005;SDS011;11167;46.988;15.470;2022-07-24T03:57:21;3.58;;;2.62;;
22005;SDS011;11167;46.988;15.470;2022-07-24T03:59:23;4.05;;;2.67;;
22005;SDS011;11167;46.988;15.470;2022-07-24T04:01:24;2.62;;;2.27;;
22005;SDS011;11167;46.988;15.470;2022-07-24T04:03:25;2.72;;;2.50;;
22005;SDS011;11167;46.988;15.470;2022-07-24T04:05:26;2.70;;;2.05;;
22005;SDS011;11167;46.988;15.470;2022-07-24T04:07:27;2.65;;;2.45;;
22005;SDS011;11167;46.988;15.470;2022-07-24T04:09:29;2.40;;;2.20;;
22005;SDS011;11167;46.988;15.470;2022-07-24T04:11:30;3.98;;;2.60;;
22005;SDS011;11167;46.988;15.470;2022-07-24T04:13:31;2.30;;;2.10;;
22005;SDS011;11167;46.988;15.470;2022-07-24T04:15:33;3.83;;;2.37;;
22005;SDS011;11167;46.988;15.470;2022-07-24T04:17:37;3.20;;;2.50;;
22005;SDS011;11167;46.988;15.470;2022-07-24T04:19:41;3.77;;;2.45;;
22005;SDS011;11167;46.988;15.470;2022-07-24T04:21:42;3.83;;;2.75;;
22005;SDS011;11167;46.988;15.470;2022-07-24T04:23:43;4.65;;;2.50;;
22005;SDS011;11167;46.988;15.470;2022-07-24T04:25:45;2.70;;;2.25;;
22005;SDS011;11167;46.988;15.470;2022-07-24T04:27:46;4.05;;;2.40;;
22005;SDS011;11167;46.988;15.470;2022-07-24T04:29:48;2.47;;;2.27;;
22005;SDS011;11167;46.988;15.470;2022-07-24T04:31:49;3.22;;;2.65;;
22005;SDS011;11167;46.988;15.470;2022-07-24T04:33:52;4.35;;;2.58;;
22005;SDS011;11167;46.988;15.470;2022-07-24T04:35:53;4.20;;;2.40;;
22005;SDS011;11167;46.988;15.470;2022-07-24T04:37:55;2.47;;;2.20;;
22005;SDS011;11167;46.988;15.470;2022-07-24T04:39:58;4.22;;;2.65;;
22005;SDS011;11167;46.988;15.470;2022-07-24T04:41:59;3.50;;;2.22;;
22005;SDS011;11167;46.988;15.470;2022-07-24T04:44:00;2.55;;;2.27;;
22005;SDS011;11167;46.988;15.470;2022-07-24T04:46:01;2.58;;;2.35;;
22005;SDS011;11167;46.988;15.470;2022-07-24T04:48:03;3.40;;;2.30;;
22005;SDS011;11167;46.988;15.470;2022-07-24T04:50:05;3.27;;;2.60;;
22005;SDS011;11167;46.988;15.470;2022-07-24T04:52:07;3.95;;;2.30;;
22005;SDS011;11167;46.988;15.470;2022-07-24T04:54:08;3.55;;;2.10;;
22005;SDS011;11167;46.988;15.470;2022-07-24T04:56:09;2.22;;;2.00;;
22005;SDS011;11167;46.988;15.470;2022-07-24T04:58:10;2.42;;;2.22;;
22005;SDS011;11167;46.988;15.470;2022-07-24T05:00:12;2.62;;;2.35;;
22005;SDS011;11167;46.988;15.470;2022-07-24T05:02:15;2.75;;;2.40;;
22005;SDS011;11167;46.988;15.470;2022-07-24T05:04:16;2.72;;;2.35;;
22005;SDS011;11167;46.988;15.470;2022-07-24T05:06:17;2.72;;;2.50;;
22005;SDS011;11167;46.988;15.470;2022-07-24T05:08:19;3.75;;;2.40;;
22005;SDS011;11167;46.988;15.470;2022-07-24T05:10:21;2.95;;;2.60;;
22005;SDS011;11167;46.988;15.470;2022-07-24T05:12:22;5.72;;;2.10;;
22005;SDS011;11167;46.988;15.470;2022-07-24T05:14:23;3.60;;;2.85;;
22005;SDS011;11167;46.988;15.470;2022-07-24T05:16:25;2.67;;;2.47;;
22005;SDS011;11167;46.988;15.470;2022-07-24T05:18:26;3.50;;;2.05;;
22005;SDS011;11167;46.988;15.470;2022-07-24T05:20:27;2.40;;;2.20;;
22005;SDS011;11167;46.988;15.470;2022-07-24T05:22:28;2.95;;;2.47;;
22005;SDS011;11167;46.988;15.470;2022-07-24T05:24:29;3.60;;;2.45;;
22005;SDS011;11167;46.988;15.470;2022-07-24T05:26:31;2.55;;;2.35;;
22005;SDS011;11167;46.988;15.470;2022-07-24T05:28:32;3.25;;;2.50;;
22005;SDS011;11167;46.988;15.470;2022-07-24T05:30:33;3.35;;;2.70;;
22005;SDS011;11167;46.988;15.470;2022-07-24T05:32:35;3.67;;;2.50;;
22005;SDS011;11167;46.988;15.470;2022-07-24T05:34:36;3.10;;;2.80;;
22005;SDS011;11167;46.988;15.470;2022-07-24T05:36:37;4.25;;;2.60;;
22005;SDS011;11167;46.988;15.470;2022-07-24T05:38:38;2.30;;;2.10;;
22005;SDS011;11167;46.988;15.470;2022-07-24T05:40:40;3.02;;;2.15;;
22005;SDS011;11167;46.988;15.470;2022-07-24T05:42:41;2.65;;;2.42;;
22005;SDS011;11167;46.988;15.470;2022-07-24T05:44:43;2.55;;;2.30;;
22005;SDS011;11167;46.988;15.470;2022-07-24T05:46:44;2.72;;;2.45;;
22005;SDS011;11167;46.988;15.470;2022-07-24T05:48:45;2.67;;;2.47;;
22005;SDS011;11167;46.988;15.470;2022-07-24T05:50:46;2.80;;;2.25;;
22005;SDS011;11167;46.988;15.470;2022-07-24T05:52:47;2.87;;;2.50;;
22005;SDS011;11167;46.988;15.470;2022-07-24T05:54:48;2.67;;;2.47;;
22005;SDS011;11167;46.988;15.470;2022-07-24T05:56:49;2.98;;;2.27;;
22005;SDS011;11167;46.988;15.470;2022-07-24T05:58:51;3.87;;;2.45;;
22005;SDS011;11167;46.988;15.470;2022-07-24T06:00:52;3.33;;;2.47;;
22005;SDS011;11167;46.988;15.470;2022-07-24T06:02:55;5.00;;;2.33;;
22005;SDS011;11167;46.988;15.470;2022-07-24T06:04:56;2.70;;;2.50;;
22005;SDS011;11167;46.988;15.470;2022-07-24T06:06:57;2.87;;;2.50;;
22005;SDS011;11167;46.988;15.470;2022-07-24T06:08:58;2.35;;;2.15;;
22005;SDS011;11167;46.988;15.470;2022-07-24T06:11:00;2.50;;;2.30;;
22005;SDS011;11167;46.988;15.470;2022-07-24T06:13:01;2.58;;;2.30;;
22005;SDS011;11167;46.988;15.470;2022-07-24T06:15:02;2.45;;;2.25;;
22005;SDS011;11167;46.988;15.470;2022-07-24T06:17:04;2.30;;;2.10;;
22005;SDS011;11167;46.988;15.470;2022-07-24T06:19:05;2.37;;;1.95;;
22005;SDS011;11167;46.988;15.470;2022-07-24T06:21:06;2.80;;;2.22;;
22005;SDS011;11167;46.988;15.470;2022-07-24T06:23:08;4.20;;;2.50;;
22005;SDS011;11167;46.988;15.470;2022-07-24T06:25:09;2.40;;;2.20;;
22005;SDS011;11167;46.988;15.470;2022-07-24T06:27:10;2.42;;;2.20;;
22005;SDS011;11167;46.988;15.470;2022-07-24T06:29:11;2.85;;;2.20;;
22005;SDS011;11167;46.988;15.470;2022-07-24T06:31:12;2.45;;;2.20;;
22005;SDS011;11167;46.988;15.470;2022-07-24T06:33:14;2.42;;;2.22;;
22005;SDS011;11167;46.988;15.470;2022-07-24T06:35:15;4.20;;;2.70;;
22005;SDS011;11167;46.988;15.470;2022-07-24T06:37:16;2.87;;;2.58;;
22005;SDS011;11167;46.988;15.470;2022-07-24T06:39:17;2.30;;;2.10;;
22005;SDS011;11167;46.988;15.470;2022-07-24T06:41:19;2.37;;;2.17;;
22005;SDS011;11167;46.988;15.470;2022-07-24T06:43:20;2.60;;;2.40;;
22005;SDS011;11167;46.988;15.470;2022-07-24T06:45:21;2.83;;;2.17;;
22005;SDS011;11167;46.988;15.470;2022-07-24T06:47:22;2.98;;;2.67;;
22005;SDS011;11167;46.988;15.470;2022-07-24T06:49:23;2.65;;;2.40;;
22005;SDS011;11167;46.988;15.470;2022-07-24T06:51:25;2.95;;;2.60;;
22005;SDS011;11167;46.988;15.470;2022-07-24T06:53:26;2.50;;;2.30;;
22005;SDS011;11167;46.988;15.470;2022-07-24T06:55:27;3.25;;;2.65;;
22005;SDS011;11167;46.988;15.470;2022-07-24T06:57:28;2.90;;;2.60;;
22005;SDS011;11167;46.988;15.470;2022-07-24T06:59:29;4.25;;;2.75;;
22005;SDS011;11167;46.988;15.470;2022-07-24T07:01:31;2.83;;;2.52;;
22005;SDS011;11167;46.988;15.470;2022-07-24T07:03:32;3.95;;;2.80;;
22005;SDS011;11167;46.988;15.470;2022-07-24T07:05:33;2.75;;;2.52;;
22005;SDS011;11167;46.988;15.470;2022-07-24T07:07:38;3.17;;;2.45;;
22005;SDS011;11167;46.988;15.470;2022-07-24T07:09:37;2.80;;;2.45;;
22005;SDS011;11167;46.988;15.470;2022-07-24T07:11:39;3.00;;;2.50;;
22005;SDS011;11167;46.988;15.470;2022-07-24T07:13:40;3.05;;;2.30;;
22005;SDS011;11167;46.988;15.470;2022-07-24T07:15:41;2.92;;;2.62;;
22005;SDS011;11167;46.988;15.470;2022-07-24T07:17:42;2.92;;;2.60;;
22005;SDS011;11167;46.988;15.470;2022-07-24T07:19:43;2.77;;;2.58;;
22005;SDS011;11167;46.988;15.470;2022-07-24T07:21:44;2.62;;;2.42;;
22005;SDS011;11167;46.988;15.470;2022-07-24T07:23:46;3.30;;;2.90;;
22005;SDS011;11167;46.988;15.470;2022-07-24T07:25:47;2.92;;;2.62;;
22005;SDS011;11167;46.988;15.470;2022-07-24T07:27:48;3.37;;;2.90;;
22005;SDS011;11167;46.988;15.470;2022-07-24T07:29:50;2.62;;;2.42;;
22005;SDS011;11167;46.988;15.470;2022-07-24T07:31:51;2.70;;;2.50;;
22005;SDS011;11167;46.988;15.470;2022-07-24T07:33:52;2.60;;;2.40;;
22005;SDS011;11167;46.988;15.470;2022-07-24T07:35:54;2.62;;;2.42;;
22005;SDS011;11167;46.988;15.470;2022-07-24T07:37:55;2.65;;;2.45;;
22005;SDS011;11167;46.988;15.470;2022-07-24T07:39:57;3.10;;;2.80;;
22005;SDS011;11167;46.988;15.470;2022-07-24T07:41:58;3.10;;;2.80;;
22005;SDS011;11167;46.988;15.470;2022-07-24T07:44:00;3.80;;;3.08;;
22005;SDS011;11167;46.988;15.470;2022-07-24T07:46:02;3.20;;;2.90;;
22005;SDS011;11167;46.988;15.470;2022-07-24T07:48:04;3.25;;;2.95;;
22005;SDS011;11167;46.988;15.470;2022-07-24T07:50:06;2.80;;;2.55;;
22005;SDS011;11167;46.988;15.470;2022-07-24T07:52:08;2.87;;;2.58;;
22005;SDS011;11167;46.988;15.470;2022-07-24T07:54:10;2.83;;;2.62;;
22005;SDS011;11167;46.988;15.470;2022-07-24T07:56:11;3.17;;;2.98;;
22005;SDS011;11167;46.988;15.470;2022-07-24T07:58:12;4.03;;;2.90;;
22005;SDS011;11167;46.988;15.470;2022-07-24T08:00:14;2.95;;;2.70;;
22005;SDS011;11167;46.988;15.470;2022-07-24T08:02:16;3.30;;;3.00;;
22005;SDS011;11167;46.988;15.470;2022-07-24T08:04:18;3.37;;;2.80;;
22005;SDS011;11167;46.988;15.470;2022-07-24T08:06:19;3.00;;;2.80;;
22005;SDS011;11167;46.988;15.470;2022-07-24T08:08:20;3.50;;;3.20;;
22005;SDS011;11167;46.988;15.470;2022-07-24T08:10:21;4.58;;;3.50;;
22005;SDS011;11167;46.988;15.470;2022-07-24T08:12:23;4.90;;;3.30;;
22005;SDS011;11167;46.988;15.470;2022-07-24T08:14:24;3.62;;;2.92;;
22005;SDS011;11167;46.988;15.470;2022-07-24T08:16:25;4.08;;;3.08;;
22005;SDS011;11167;46.988;15.470;2022-07-24T08:18:27;3.45;;;3.15;;
22005;SDS011;11167;46.988;15.470;2022-07-24T08:20:28;3.87;;;3.20;;
22005;SDS011;11167;46.988;15.470;2022-07-24T08:22:30;3.08;;;2.83;;
22005;SDS011;11167;46.988;15.470;2022-07-24T08:24:31;3.65;;;3.35;;
22005;SDS011;11167;46.988;15.470;2022-07-24T08:26:33;3.30;;;3.00;;
22005;SDS011;11167;46.988;15.470;2022-07-24T08:28:34;3.17;;;2.87;;
22005;SDS011;11167;46.988;15.470;2022-07-24T08:30:35;3.30;;;3.00;;
22005;SDS011;11167;46.988;15.470;2022-07-24T08:32:36;3.15;;;2.83;;
22005;SDS011;11167;46.988;15.470;2022-07-24T08:34:38;3.70;;;3.20;;
22005;SDS011;11167;46.988;15.470;2022-07-24T08:36:40;3.00;;;2.80;;
22005;SDS011;11167;46.988;15.470;2022-07-24T08:38:41;3.37;;;2.95;;
22005;SDS011;11167;46.988;15.470;2022-07-24T08:40:42;4.15;;;3.42;;
22005;SDS011;11167;46.988;15.470;2022-07-24T08:42:44;3.40;;;3.10;;
22005;SDS011;11167;46.988;15.470;2022-07-24T08:44:45;3.40;;;3.10;;
22005;SDS011;11167;46.988;15.470;2022-07-24T08:46:47;3.62;;;3.33;;
22005;SDS011;11167;46.988;15.470;2022-07-24T08:48:50;3.60;;;3.30;;
22005;SDS011;11167;46.988;15.470;2022-07-24T08:50:51;3.85;;;3.45;;
22005;SDS011;11167;46.988;15.470;2022-07-24T08:52:54;3.50;;;3.20;;
22005;SDS011;11167;46.988;15.470;2022-07-24T08:54:56;3.80;;;3.50;;
22005;SDS011;11167;46.988;15.470;2022-07-24T08:56:58;4.05;;;3.65;;
22005;SDS011;11167;46.988;15.470;2022-07-24T08:58:59;4.00;;;3.55;;
22005;SDS011;11167;46.988;15.470;2022-07-24T09:01:00;3.75;;;3.42;;
22005;SDS011;11167;46.988;15.470;2022-07-24T09:03:02;3.65;;;3.35;;
22005;SDS011;11167;46.988;15.470;2022-07-24T09:05:03;3.85;;;3.55;;
22005;SDS011;11167;46.988;15.470;2022-07-24T09:07:06;3.50;;;3.20;;
22005;SDS011;11167;46.988;15.470;2022-07-24T09:09:17;4.33;;;3.52;;
22005;SDS011;11167;46.988;15.470;2022-07-24T09:11:21;3.90;;;3.50;;
22005;SDS011;11167;46.988;15.470;2022-07-24T09:13:24;3.92;;;3.55;;
22005;SDS011;11167;46.988;15.470;2022-07-24T09:15:27;3.72;;;3.42;;
22005;SDS011;11167;46.988;15.470;2022-07-24T09:20:00;3.65;;;3.35;;
22005;SDS011;11167;46.988;15.470;2022-07-24T09:22:01;4.12;;;3.83;;
22005;SDS011;11167;46.988;15.470;2022-07-24T09:24:13;3.75;;;3.42;;
22005;SDS011;11167;46.988;15.470;2022-07-24T09:26:18;4.20;;;3.80;;
22005;SDS011;11167;46.988;15.470;2022-07-24T09:28:19;4.15;;;3.85;;
22005;SDS011;11167;46.988;15.470;2022-07-24T09:30:25;4.12;;;3.72;;
22005;SDS011;11167;46.988;15.470;2022-07-24T09:32:28;3.92;;;3.50;;
22005;SDS011;11167;46.988;15.470;2022-07-24T09:34:31;5.25;;;4.03;;
22005;SDS011;11167;46.988;15.470;2022-07-24T09:36:34;4.00;;;3.62;;
22005;SDS011;11167;46.988;15.470;2022-07-24T09:38:35;3.95;;;3.65;;
22005;SDS011;11167;46.988;15.470;2022-07-24T09:40:38;4.47;;;4.08;;
22005;SDS011;11167;46.988;15.470;2022-07-24T09:42:41;4.80;;;3.98;;
22005;SDS011;11167;46.988;15.470;2022-07-24T09:44:43;4.20;;;3.80;;
22005;SDS011;11167;46.988;15.470;2022-07-24T09:46:48;4.40;;;3.70;;
22005;SDS011;11167;46.988;15.470;2022-07-24T09:49:01;4.50;;;4.10;;
22005;SDS011;11167;46.988;15.470;2022-07-24T09:51:13;4.33;;;3.93;;
22005;SDS011;11167;46.988;15.470;2022-07-24T09:53:16;3.72;;;3.42;;
22005;SDS011;11167;46.988;15.470;2022-07-24T09:55:23;4.22;;;3.77;;
22005;SDS011;11167;46.988;15.470;2022-07-24T09:57:29;3.80;;;3.50;;
22005;SDS011;11167;46.988;15.470;2022-07-24T09:59:31;4.12;;;3.83;;
22005;SDS011;11167;46.988;15.470;2022-07-24T10:01:36;4.47;;;4.08;;
22005;SDS011;11167;46.988;15.470;2022-07-24T10:03:42;4.10;;;3.70;;
22005;SDS011;11167;46.988;15.470;2022-07-24T10:07:47;3.75;;;3.45;;
22005;SDS011;11167;46.988;15.470;2022-07-24T10:09:54;4.40;;;4.00;;
22005;SDS011;11167;46.988;15.470;2022-07-24T10:11:57;4.30;;;3.90;;
22005;SDS011;11167;46.988;15.470;2022-07-24T10:13:59;4.08;;;3.77;;
22005;SDS011;11167;46.988;15.470;2022-07-24T10:18:14;4.12;;;3.80;;
22005;SDS011;11167;46.988;15.470;2022-07-24T10:20:21;4.67;;;4.20;;
22005;SDS011;11167;46.988;15.470;2022-07-24T10:22:22;4.30;;;3.90;;
22005;SDS011;11167;46.988;15.470;2022-07-24T10:24:37;4.35;;;3.95;;
22005;SDS011;11167;46.988;15.470;2022-07-24T10:26:36;4.85;;;4.03;;
22005;SDS011;11167;46.988;15.470;2022-07-24T10:28:43;4.37;;;3.83;;
22005;SDS011;11167;46.988;15.470;2022-07-24T10:30:44;4.70;;;3.72;;
22005;SDS011;11167;46.988;15.470;2022-07-24T10:32:45;4.30;;;3.90;;
22005;SDS011;11167;46.988;15.470;2022-07-24T10:35:31;4.72;;;4.33;;
22005;SDS011;11167;46.988;15.470;2022-07-24T10:39:26;4.03;;;3.67;;
22005;SDS011;11167;46.988;15.470;2022-07-24T10:41:29;4.33;;;3.92;;
22005;SDS011;11167;46.988;15.470;2022-07-24T10:43:31;4.50;;;4.10;;
22005;SDS011;11167;46.988;15.470;2022-07-24T10:45:33;4.03;;;3.62;;
22005;SDS011;11167;46.988;15.470;2022-07-24T10:47:35;5.85;;;3.92;;
22005;SDS011;11167;46.988;15.470;2022-07-24T10:49:44;4.17;;;3.77;;
22005;SDS011;11167;46.988;15.470;2022-07-24T10:51:58;3.83;;;3.52;;
22005;SDS011;11167;46.988;15.470;2022-07-24T10:54:00;4.47;;;3.92;;
22005;SDS011;11167;46.988;15.470;2022-07-24T10:58:18;4.67;;;4.28;;
22005;SDS011;11167;46.988;15.470;2022-07-24T11:00:25;4.83;;;4.33;;
22005;SDS011;11167;46.988;15.470;2022-07-24T11:02:29;4.60;;;4.20;;
22005;SDS011;11167;46.988;15.470;2022-07-24T11:04:32;4.25;;;3.87;;
22005;SDS011;11167;46.988;15.470;2022-07-24T11:08:48;4.65;;;4.15;;
22005;SDS011;11167;46.988;15.470;2022-07-24T11:10:50;4.30;;;3.90;;
22005;SDS011;11167;46.988;15.470;2022-07-24T11:12:53;4.50;;;4.10;;
22005;SDS011;11167;46.988;15.470;2022-07-24T11:15:02;4.20;;;3.90;;
22005;SDS011;11167;46.988;15.470;2022-07-24T11:17:39;4.30;;;3.90;;
22005;SDS011;11167;46.988;15.470;2022-07-24T11:19:43;4.37;;;3.95;;
22005;SDS011;11167;46.988;15.470;2022-07-24T11:21:48;4.58;;;4.17;;
22005;SDS011;11167;46.988;15.470;2022-07-24T11:28:37;4.17;;;3.83;;
22005;SDS011;11167;46.988;15.470;2022-07-24T11:30:44;4.42;;;4.03;;
22005;SDS011;11167;46.988;15.470;2022-07-24T11:32:46;4.25;;;3.95;;
22005;SDS011;11167;46.988;15.470;2022-07-24T11:34:51;4.50;;;4.10;;
22005;SDS011;11167;46.988;15.470;2022-07-24T11:36:53;4.37;;;4.03;;
22005;SDS011;11167;46.988;15.470;2022-07-24T11:38:55;4.50;;;3.98;;
22005;SDS011;11167;46.988;15.470;2022-07-24T11:43:17;4.10;;;3.80;;
22005;SDS011;11167;46.988;15.470;2022-07-24T11:45:18;4.37;;;3.98;;
22005;SDS011;11167;46.988;15.470;2022-07-24T11:47:21;4.62;;;4.22;;
22005;SDS011;11167;46.988;15.470;2022-07-24T11:49:25;4.30;;;3.90;;
22005;SDS011;11167;46.988;15.470;2022-07-24T11:51:26;4.55;;;4.15;;
22005;SDS011;11167;46.988;15.470;2022-07-24T11:53:28;4.35;;;3.98;;
22005;SDS011;11167;46.988;15.470;2022-07-24T11:55:30;4.70;;;4.30;;
22005;SDS011;11167;46.988;15.470;2022-07-24T11:57:32;4.00;;;3.70;;
22005;SDS011;11167;46.988;15.470;2022-07-24T11:59:35;3.98;;;3.67;;
22005;SDS011;11167;46.988;15.470;2022-07-24T12:01:36;4.45;;;4.05;;
22005;SDS011;11167;46.988;15.470;2022-07-24T12:03:47;4.40;;;4.00;;
22005;SDS011;11167;46.988;15.470;2022-07-24T12:05:42;4.45;;;3.77;;
22005;SDS011;11167;46.988;15.470;2022-07-24T12:07:44;4.45;;;4.05;;
22005;SDS011;11167;46.988;15.470;2022-07-24T12:09:52;4.30;;;3.90;;
22005;SDS011;11167;46.988;15.470;2022-07-24T12:11:54;4.58;;;4.17;;
22005;SDS011;11167;46.988;15.470;2022-07-24T12:13:55;4.40;;;4.10;;
22005;SDS011;11167;46.988;15.470;2022-07-24T12:15:57;4.50;;;4.10;;
22005;SDS011;11167;46.988;15.470;2022-07-24T12:20:07;4.12;;;3.83;;
22005;SDS011;11167;46.988;15.470;2022-07-24T12:22:30;4.50;;;4.10;;
22005;SDS011;11167;46.988;15.470;2022-07-24T12:24:31;4.33;;;4.03;;
22005;SDS011;11167;46.988;15.470;2022-07-24T12:26:33;4.37;;;3.98;;
22005;SDS011;11167;46.988;15.470;2022-07-24T12:28:34;4.33;;;3.92;;
22005;SDS011;11167;46.988;15.470;2022-07-24T12:30:45;4.15;;;3.85;;
22005;SDS011;11167;46.988;15.470;2022-07-24T12:34:59;4.03;;;3.72;;